Time;durP1;ratioP1;P1;durP2;ratioP2;P2;SDS_P1;SDS_P2;PMS_P1;PMS_P2;Temp;Humidity;BMP_temperature;BMP_pressure;BME280_temperature;BME280_humidity;BME280_pressure;Samples;Min_cycle;Max_cycle;Signal;HPM_P1;HPM_P2
2022/03/09 00:01:29;;;;;;;6.15;3.70;;;1.90;99.90;;;;;;5032424;28;20476;-82
2022/03/09 00:03:55;;;;;;;5.15;3.28;;;1.80;99.90;;;;;;5015636;28;20083;-83
2022/03/09 00:06:21;;;;;;;5.68;3.97;;;1.80;99.90;;;;;;5033135;28;20066;-82
2022/03/09 00:08:47;;;;;;;5.28;3.53;;;1.80;99.90;;;;;;5029147;28;20123;-82
2022/03/09 00:11:12;;;;;;;6.85;3.60;;;1.70;99.90;;;;;;5030862;28;20071;-82
2022/03/09 00:13:41;;;;;;;5.97;3.72;;;1.70;99.90;;;;;;5017456;28;20458;-82
2022/03/09 00:16:12;;;;;;;5.55;3.80;;;1.70;99.90;;;;;;5015403;28;20232;-82
2022/03/09 00:18:41;;;;;;;5.70;3.95;;;1.60;99.90;;;;;;5017937;28;20036;-82
2022/03/09 00:21:07;;;;;;;5.75;4.18;;;1.60;99.90;;;;;;5032665;28;20079;-83
2022/03/09 00:23:32;;;;;;;5.82;3.58;;;1.60;99.90;;;;;;5014982;28;22090;-82
2022/03/09 00:25:58;;;;;;;5.93;4.00;;;1.60;99.90;;;;;;5014397;28;20029;-82
2022/03/09 00:28:24;;;;;;;4.88;3.67;;;1.60;99.90;;;;;;5015339;28;20453;-82
2022/03/09 00:30:50;;;;;;;6.85;4.45;;;1.60;99.90;;;;;;5015498;28;20114;-82
2022/03/09 00:33:16;;;;;;;5.25;4.07;;;1.50;99.90;;;;;;5015307;28;20116;-83
2022/03/09 00:35:43;;;;;;;6.05;4.20;;;1.50;99.90;;;;;;5014967;28;20037;-82
2022/03/09 00:38:10;;;;;;;6.10;4.28;;;1.50;99.90;;;;;;5032082;28;20032;-82
2022/03/09 00:40:36;;;;;;;8.45;4.53;;;1.40;99.90;;;;;;5015178;28;20055;-82
2022/03/09 00:43:02;;;;;;;5.55;4.38;;;1.40;99.90;;;;;;5016054;28;20041;-82
2022/03/09 00:45:30;;;;;;;7.22;4.38;;;1.30;99.90;;;;;;5015970;28;20041;-83
2022/03/09 00:47:56;;;;;;;5.63;3.60;;;1.30;99.90;;;;;;5038374;28;20423;-82
2022/03/09 00:50:22;;;;;;;5.70;4.30;;;1.30;99.90;;;;;;5016245;28;20196;-82
2022/03/09 00:52:48;;;;;;;5.50;4.07;;;1.30;99.90;;;;;;5015727;28;20040;-82
2022/03/09 00:55:14;;;;;;;7.57;5.30;;;1.30;99.90;;;;;;5031495;28;20051;-82
2022/03/09 00:57:40;;;;;;;5.20;4.05;;;1.20;99.90;;;;;;5014249;28;20575;-82
2022/03/09 01:00:06;;;;;;;4.70;3.78;;;1.20;99.90;;;;;;5016236;28;20514;-82
2022/03/09 01:02:32;;;;;;;5.80;4.30;;;1.20;99.90;;;;;;5015163;28;20056;-82
2022/03/09 01:05:00;;;;;;;6.05;4.50;;;1.10;99.90;;;;;;5031579;28;20040;-82
2022/03/09 01:07:26;;;;;;;6.70;4.50;;;1.00;99.90;;;;;;5014048;28;20067;-82
2022/03/09 01:09:51;;;;;;;8.48;4.38;;;1.00;99.90;;;;;;5014222;28;20477;-82
2022/03/09 01:12:17;;;;;;;6.65;4.57;;;1.00;99.90;;;;;;5031225;28;20050;-82
2022/03/09 01:14:43;;;;;;;6.45;4.40;;;0.90;99.90;;;;;;5032522;28;20087;-83
2022/03/09 01:17:08;;;;;;;7.93;4.75;;;0.90;99.90;;;;;;5017060;28;20044;-82
2022/03/09 01:19:36;;;;;;;7.32;4.55;;;0.80;1.00;;;;;;5017672;28;20560;-83
2022/03/09 01:22:02;;;;;;;5.97;4.35;;;0.70;1.00;;;;;;5031547;28;20045;-82
2022/03/09 01:24:28;;;;;;;6.03;4.38;;;0.70;1.00;;;;;;5030813;28;20041;-83
2022/03/09 01:26:53;;;;;;;6.57;5.03;;;0.70;1.00;;;;;;5014872;28;20037;-82
2022/03/09 01:29:19;;;;;;;6.95;4.68;;;0.70;1.00;;;;;;5030747;28;20094;-82
2022/03/09 01:31:45;;;;;;;6.90;4.50;;;0.80;1.00;;;;;;5027973;28;20448;-82
2022/03/09 01:34:10;;;;;;;6.43;4.93;;;0.80;99.90;;;;;;5017473;28;20564;-82
2022/03/09 01:36:37;;;;;;;7.40;4.82;;;0.70;99.90;;;;;;5017884;28;20043;-82
2022/03/09 01:39:03;;;;;;;6.50;5.07;;;0.70;1.00;;;;;;5018009;28;20045;-82
2022/03/09 01:41:29;;;;;;;8.13;5.40;;;0.70;1.00;;;;;;5022818;28;20437;-82
2022/03/09 01:44:06;;;;;;;7.90;5.30;;;0.70;1.00;;;;;;5033289;28;20377;-82
2022/03/09 01:46:32;;;;;;;8.88;5.25;;;0.60;1.00;;;;;;5018313;28;20041;-82
2022/03/09 01:49:01;;;;;;;6.53;4.85;;;0.60;1.00;;;;;;5034844;28;20048;-82
2022/03/09 01:51:26;;;;;;;7.97;5.70;;;0.50;1.00;;;;;;5035050;28;20306;-83
2022/03/09 01:53:52;;;;;;;7.50;5.43;;;0.40;1.00;;;;;;5017072;28;20062;-82
2022/03/09 01:56:18;;;;;;;8.90;5.10;;;0.40;11.10;;;;;;5015432;28;20055;-82
2022/03/09 01:58:44;;;;;;;6.88;4.78;;;0.40;51.40;;;;;;5018154;28;20025;-82
2022/03/09 02:01:10;;;;;;;7.05;4.97;;;0.40;55.90;;;;;;5019160;28;20045;-82
2022/03/09 02:03:36;;;;;;;6.72;4.82;;;0.40;39.40;;;;;;5019938;28;20045;-82
2022/03/09 02:06:04;;;;;;;11.43;5.18;;;0.30;21.50;;;;;;5036336;28;20301;-83
2022/03/09 02:11:15;;;;;;;9.07;5.43;;;0.30;99.90;;;;;;5036918;28;20049;-82
2022/03/09 02:13:40;;;;;;;8.00;5.40;;;0.20;99.90;;;;;;5018297;28;20116;-82
2022/03/09 02:16:06;;;;;;;6.65;4.75;;;0.10;99.90;;;;;;5034400;28;20116;-82
2022/03/09 02:18:32;;;;;;;7.68;5.57;;;0.20;99.90;;;;;;5034204;28;20112;-82
2022/03/09 02:21:02;;;;;;;6.85;4.95;;;0.10;99.90;;;;;;5019716;28;20156;-82
2022/03/09 02:23:27;;;;;;;10.10;5.45;;;0.10;99.90;;;;;;5038393;28;20033;-82
2022/03/09 02:25:53;;;;;;;10.82;5.75;;;0.10;99.90;;;;;;5019349;28;20487;-83
2022/03/09 02:28:19;;;;;;;11.00;6.07;;;0.00;99.90;;;;;;5034334;28;20033;-83
2022/03/09 02:30:44;;;;;;;8.52;5.05;;;0.00;99.90;;;;;;5019984;28;20194;-82
2022/03/09 02:33:10;;;;;;;8.05;5.28;;;0.00;99.90;;;;;;5034958;28;20492;-82
2022/03/09 02:35:36;;;;;;;10.00;6.20;;;0.00;99.90;;;;;;5017994;28;20137;-83
2022/03/09 02:38:04;;;;;;;8.25;5.35;;;0.00;99.90;;;;;;5016513;28;20304;-83
2022/03/09 02:40:30;;;;;;;9.20;5.78;;;0.10;99.90;;;;;;5034009;28;20073;-82
2022/03/09 02:42:56;;;;;;;8.43;6.25;;;0.10;99.90;;;;;;5033718;28;20096;-83
2022/03/09 02:45:21;;;;;;;8.07;5.70;;;0.10;99.90;;;;;;5015560;28;20041;-82
2022/03/09 02:47:47;;;;;;;9.43;5.95;;;0.10;99.90;;;;;;5032255;28;20444;-83
2022/03/09 02:50:14;;;;;;;10.07;5.88;;;0.00;99.90;;;;;;5017433;28;20041;-82
2022/03/09 02:52:44;;;;;;;8.00;5.82;;;0.00;99.90;;;;;;5018222;28;20832;-83
2022/03/09 02:55:11;;;;;;;8.95;6.00;;;0.00;99.90;;;;;;5017563;28;20112;-82
2022/03/09 02:57:37;;;;;;;9.25;5.97;;;0.00;99.90;;;;;;5033134;28;20045;-82
2022/03/09 03:00:08;;;;;;;9.23;6.22;;;-0.10;99.90;;;;;;5035071;28;20033;-82
2022/03/09 03:02:34;;;;;;;9.63;6.45;;;0.00;99.90;;;;;;5016007;28;20053;-82
2022/03/09 03:05:00;;;;;;;9.50;6.50;;;-0.10;99.90;;;;;;5017867;28;20336;-83
2022/03/09 03:07:26;;;;;;;8.85;5.97;;;-0.10;99.90;;;;;;5032790;28;20280;-82
2022/03/09 03:09:51;;;;;;;8.80;5.72;;;-0.10;99.90;;;;;;5016791;28;20464;-82
2022/03/09 03:12:20;;;;;;;8.88;6.22;;;-0.10;99.90;;;;;;5018252;28;20048;-82
2022/03/09 03:14:46;;;;;;;10.02;6.20;;;-0.10;99.90;;;;;;5056691;28;20123;-82
2022/03/09 03:17:11;;;;;;;9.55;5.95;;;-0.20;99.90;;;;;;5015897;28;20112;-82
2022/03/09 03:19:41;;;;;;;8.60;5.93;;;-0.20;99.90;;;;;;5055694;28;20171;-82
2022/03/09 03:22:06;;;;;;;9.25;6.57;;;-0.30;99.90;;;;;;5017427;28;20463;-83
2022/03/09 03:24:32;;;;;;;9.85;6.65;;;-0.20;99.90;;;;;;5033994;28;20048;-82
2022/03/09 03:26:58;;;;;;;10.80;6.40;;;-0.30;99.90;;;;;;5017215;28;20317;-82
2022/03/09 03:29:26;;;;;;;11.32;6.43;;;-0.30;99.90;;;;;;5031983;28;20084;-82
2022/03/09 03:31:52;;;;;;;8.82;6.35;;;-0.30;99.90;;;;;;5016595;28;20511;-83
2022/03/09 03:34:18;;;;;;;10.52;6.32;;;-0.40;99.90;;;;;;5016201;28;20048;-83
2022/03/09 03:36:44;;;;;;;9.05;6.50;;;-0.40;99.90;;;;;;5030350;28;20452;-82
2022/03/09 03:39:09;;;;;;;8.93;6.50;;;-0.40;99.90;;;;;;5016401;28;20227;-82
2022/03/09 03:41:36;;;;;;;9.80;6.47;;;-0.40;99.90;;;;;;5015555;28;20433;-82
2022/03/09 03:44:03;;;;;;;10.93;6.60;;;-0.50;99.90;;;;;;5015803;28;20550;-82
2022/03/09 03:46:29;;;;;;;10.00;6.72;;;-0.50;99.90;;;;;;5016713;28;20044;-83
2022/03/09 03:48:54;;;;;;;10.88;6.70;;;-0.50;99.90;;;;;;5014895;28;20560;-82
2022/03/09 03:51:20;;;;;;;10.50;6.47;;;-0.50;99.90;;;;;;5035165;28;20090;-82
2022/03/09 03:53:46;;;;;;;10.32;7.03;;;-0.50;99.90;;;;;;5031290;28;20906;-82
2022/03/09 03:56:12;;;;;;;9.07;6.82;;;-0.50;99.90;;;;;;5015558;28;20052;-82
2022/03/09 03:58:37;;;;;;;8.93;6.45;;;-0.50;99.90;;;;;;5032584;28;20142;-82
2022/03/09 04:01:03;;;;;;;10.07;6.60;;;-0.50;99.90;;;;;;5031743;28;20036;-83
2022/03/09 04:03:29;;;;;;;8.73;6.72;;;-0.50;99.90;;;;;;5015812;28;20318;-82
2022/03/09 04:05:54;;;;;;;11.98;7.85;;;-0.50;99.90;;;;;;5016931;28;20046;-82
2022/03/09 04:08:20;;;;;;;10.77;6.35;;;-0.50;99.90;;;;;;5015079;28;20043;-82
2022/03/09 04:10:48;;;;;;;9.90;6.72;;;-0.50;99.90;;;;;;5017608;28;20041;-82
2022/03/09 04:13:17;;;;;;;11.55;7.20;;;-0.50;99.90;;;;;;5032754;28;20029;-83
2022/03/09 04:15:43;;;;;;;10.63;7.45;;;-0.60;99.90;;;;;;5014079;28;20033;-82
2022/03/09 04:18:08;;;;;;;11.52;7.03;;;-0.60;99.90;;;;;;5033682;28;20048;-83
2022/03/09 04:20:34;;;;;;;9.80;6.88;;;-0.60;1.00;;;;;;5013637;28;20044;-83
2022/03/09 04:22:59;;;;;;;9.43;6.85;;;-0.70;1.00;;;;;;5032764;28;20358;-82
2022/03/09 04:25:26;;;;;;;13.93;7.35;;;-0.70;1.00;;;;;;5013843;28;20045;-82
2022/03/09 04:27:52;;;;;;;10.45;7.05;;;-0.70;1.00;;;;;;5015014;28;20060;-82
2022/03/09 04:30:17;;;;;;;9.23;6.78;;;-0.70;1.00;;;;;;5031464;28;20037;-82
2022/03/09 04:32:46;;;;;;;11.18;7.45;;;-0.70;1.00;;;;;;5014416;28;20194;-83
2022/03/09 04:35:12;;;;;;;12.43;7.57;;;-0.80;1.00;;;;;;5015996;28;20398;-83
2022/03/09 04:37:38;;;;;;;10.85;7.20;;;-0.80;1.00;;;;;;5014924;28;20027;-82
2022/03/09 04:40:04;;;;;;;10.20;6.95;;;-0.80;1.00;;;;;;5013225;28;20090;-83
2022/03/09 04:42:30;;;;;;;12.52;6.95;;;-0.80;1.00;;;;;;5032668;28;20305;-82
2022/03/09 04:44:56;;;;;;;10.07;6.60;;;-0.70;1.00;;;;;;5016082;28;20429;-82
2022/03/09 04:47:22;;;;;;;10.82;6.72;;;-0.80;1.00;;;;;;5015966;28;20033;-82
2022/03/09 04:49:48;;;;;;;11.65;7.30;;;-0.90;1.00;;;;;;5013765;28;20405;-83
2022/03/09 04:52:16;;;;;;;11.18;6.72;;;-0.90;1.00;;;;;;5014568;28;20477;-82
2022/03/09 04:54:43;;;;;;;15.02;7.38;;;-0.90;1.00;;;;;;5030334;28;20543;-82
2022/03/09 04:57:17;;;;;;;10.15;7.22;;;-1.00;1.00;;;;;;5013974;28;20127;-83
2022/03/09 04:59:43;;;;;;;10.65;7.15;;;-1.00;1.00;;;;;;5015002;28;20029;-82
2022/03/09 05:02:15;;;;;;;10.35;6.97;;;-1.00;1.00;;;;;;5030005;28;20045;-82
2022/03/09 05:04:41;;;;;;;13.25;7.22;;;-0.90;1.00;;;;;;5031441;28;20106;-82
2022/03/09 05:07:06;;;;;;;12.85;7.80;;;-1.00;1.00;;;;;;5031817;28;20045;-82
2022/03/09 05:09:33;;;;;;;11.23;7.43;;;-1.00;1.00;;;;;;5015737;28;20223;-82
2022/03/09 05:11:59;;;;;;;11.38;7.70;;;-1.00;1.00;;;;;;5032691;28;20121;-83
2022/03/09 05:14:24;;;;;;;10.55;7.03;;;-1.00;1.00;;;;;;5013485;28;20079;-82
2022/03/09 05:16:53;;;;;;;10.13;6.93;;;-1.10;1.00;;;;;;5014558;28;20041;-82
2022/03/09 05:19:19;;;;;;;10.93;7.28;;;-1.20;1.00;;;;;;5050131;28;20029;-82
2022/03/09 05:21:44;;;;;;;11.02;7.20;;;-1.20;6.50;;;;;;5034082;28;20926;-82
2022/03/09 05:24:10;;;;;;;10.80;7.53;;;-1.20;1.00;;;;;;5016051;28;20432;-82
2022/03/09 05:26:37;;;;;;;11.07;7.85;;;-1.30;1.00;;;;;;5014204;28;20049;-82
2022/03/09 05:29:03;;;;;;;11.93;7.32;;;-1.30;1.00;;;;;;5053319;28;20396;-82
2022/03/09 05:31:29;;;;;;;10.15;6.88;;;-1.30;1.00;;;;;;5031204;28;20037;-82
2022/03/09 05:33:54;;;;;;;9.82;7.18;;;-1.30;1.00;;;;;;5013782;28;20045;-82
2022/03/09 05:36:20;;;;;;;16.40;8.52;;;-1.30;1.00;;;;;;5014655;28;20047;-82
2022/03/09 05:38:46;;;;;;;12.05;8.02;;;-1.40;1.00;;;;;;5029885;28;20794;-82
2022/03/09 05:41:11;;;;;;;9.50;6.70;;;-1.40;1.00;;;;;;5015020;28;20121;-82
2022/03/09 05:43:42;;;;;;;13.40;7.72;;;-1.40;18.30;;;;;;5029519;28;20122;-83
2022/03/09 05:46:11;;;;;;;12.63;7.57;;;-1.30;18.60;;;;;;5033390;28;20095;-82
2022/03/09 05:48:39;;;;;;;11.50;7.75;;;-1.40;22.30;;;;;;5031604;28;20041;-82
2022/03/09 05:51:08;;;;;;;13.00;7.60;;;-1.40;19.90;;;;;;5017961;28;20111;-82
2022/03/09 05:53:34;;;;;;;9.75;7.20;;;-1.40;21.80;;;;;;5013125;28;20448;-82
2022/03/09 05:56:00;;;;;;;12.73;8.38;;;-1.40;6.30;;;;;;5013823;28;20129;-83
2022/03/09 05:58:25;;;;;;;14.82;8.10;;;-1.50;12.40;;;;;;5012618;28;20033;-82
2022/03/09 06:00:51;;;;;;;12.00;7.85;;;-1.40;12.80;;;;;;5029811;28;20406;-83
2022/03/09 06:03:17;;;;;;;12.23;8.60;;;-1.50;35.80;;;;;;5032033;28;20383;-83
2022/03/09 06:05:42;;;;;;;13.35;8.18;;;-1.40;35.20;;;;;;5013376;28;20033;-82
2022/03/09 06:08:08;;;;;;;11.73;7.70;;;-1.40;33.60;;;;;;5012347;28;20485;-82
2022/03/09 06:10:37;;;;;;;13.80;8.82;;;-1.40;28.90;;;;;;5033483;28;20521;-83
2022/03/09 06:13:02;;;;;;;11.65;7.95;;;-1.30;24.10;;;;;;5014470;28;20457;-83
2022/03/09 06:15:28;;;;;;;12.98;7.63;;;-1.30;1.00;;;;;;5012527;28;20041;-83
2022/03/09 06:17:54;;;;;;;16.48;7.57;;;-1.30;1.00;;;;;;5028471;28;20045;-83
2022/03/09 06:20:22;;;;;;;14.55;7.70;;;-1.30;1.00;;;;;;5018118;28;20051;-79
2022/03/09 06:22:48;;;;;;;11.85;7.90;;;-1.40;1.00;;;;;;5035015;28;20364;-79
2022/03/09 06:25:17;;;;;;;13.77;7.60;;;-1.30;1.00;;;;;;5015743;28;21064;-79
2022/03/09 06:27:46;;;;;;;12.15;8.15;;;-1.30;2.20;;;;;;5017201;28;20218;-79
2022/03/09 06:30:13;;;;;;;12.23;8.60;;;-1.20;10.20;;;;;;5034171;28;20506;-79
2022/03/09 06:32:41;;;;;;;11.32;7.35;;;-1.20;1.00;;;;;;5037122;28;20102;-79
2022/03/09 06:35:08;;;;;;;14.23;8.25;;;-1.20;1.00;;;;;;5015870;28;20234;-79
2022/03/09 06:37:34;;;;;;;12.48;8.23;;;-1.20;1.00;;;;;;5033477;28;20425;-79
2022/03/09 06:40:01;;;;;;;11.60;7.72;;;-1.10;1.30;;;;;;5015750;28;20456;-79
2022/03/09 06:42:27;;;;;;;10.73;7.22;;;-1.00;1.00;;;;;;5018717;28;20029;-79
2022/03/09 06:44:53;;;;;;;12.48;7.63;;;-1.00;1.00;;;;;;5016919;28;20045;-78
2022/03/09 06:47:21;;;;;;;14.43;7.85;;;-0.90;1.00;;;;;;5016736;28;20049;-79
2022/03/09 06:49:47;;;;;;;13.43;8.48;;;-0.80;1.00;;;;;;5019154;28;20033;-79
2022/03/09 06:52:13;;;;;;;11.02;7.80;;;-0.70;1.00;;;;;;5034132;28;20048;-79
2022/03/09 06:54:38;;;;;;;11.88;7.70;;;-0.70;1.00;;;;;;5035591;28;20118;-79
2022/03/09 06:57:04;;;;;;;11.38;7.82;;;-0.60;1.00;;;;;;5019524;28;20112;-79
2022/03/09 06:59:30;;;;;;;13.45;7.93;;;-0.50;1.00;;;;;;5018239;28;20037;-79
2022/03/09 07:01:55;;;;;;;13.43;7.57;;;-0.40;1.00;;;;;;5018063;28;20037;-79
2022/03/09 07:04:24;;;;;;;12.30;7.70;;;-0.30;1.00;;;;;;5019972;28;20480;-79
2022/03/09 07:06:55;;;;;;;12.20;7.70;;;-0.20;1.00;;;;;;5035376;28;20041;-79
2022/03/09 07:09:21;;;;;;;12.65;7.78;;;-0.10;1.00;;;;;;5017423;28;20132;-79
2022/03/09 07:11:49;;;;;;;11.60;8.02;;;0.10;1.00;;;;;;5035493;28;20116;-79
2022/03/09 07:14:15;;;;;;;15.85;7.45;;;0.20;1.00;;;;;;5053868;28;20069;-80
2022/03/09 07:16:40;;;;;;;13.27;8.32;;;0.30;1.00;;;;;;5039126;28;20065;-79
2022/03/09 07:19:06;;;;;;;12.48;7.57;;;0.40;1.00;;;;;;5016713;28;20116;-79
2022/03/09 07:21:32;;;;;;;11.85;7.97;;;0.60;1.00;;;;;;5021166;28;20052;-79
2022/03/09 07:23:57;;;;;;;14.75;8.05;;;0.70;1.00;;;;;;5019759;28;20040;-79
2022/03/09 07:26:23;;;;;;;12.52;8.05;;;0.80;1.00;;;;;;5034574;28;20052;-79
2022/03/09 07:28:49;;;;;;;14.00;8.38;;;0.90;99.90;;;;;;5014293;28;20038;-80
2022/03/09 07:31:14;;;;;;;15.38;8.57;;;1.00;99.90;;;;;;5018131;28;20170;-80
2022/03/09 07:33:40;;;;;;;11.52;8.18;;;1.10;99.90;;;;;;5036465;28;20036;-80
2022/03/09 07:36:06;;;;;;;14.38;7.95;;;1.20;99.90;;;;;;5037188;28;20205;-79
2022/03/09 07:38:32;;;;;;;11.52;7.47;;;1.40;99.90;;;;;;5018875;28;20187;-79
2022/03/09 07:41:01;;;;;;;12.35;8.60;;;1.60;99.90;;;;;;5017620;28;20091;-79
2022/03/09 07:43:26;;;;;;;13.73;7.55;;;1.70;99.90;;;;;;5035931;28;20064;-79
2022/03/09 07:45:52;;;;;;;12.18;7.32;;;1.80;92.60;;;;;;5019016;28;20029;-79
2022/03/09 07:48:18;;;;;;;14.52;7.55;;;1.90;54.80;;;;;;5037902;28;20182;-78
2022/03/09 07:50:44;;;;;;;13.38;7.60;;;2.00;1.00;;;;;;5037117;28;20099;-79
2022/03/09 07:53:09;;;;;;;12.55;7.60;;;2.10;1.00;;;;;;5019769;28;20090;-79
2022/03/09 07:55:35;;;;;;;16.05;7.75;;;2.20;1.00;;;;;;5015826;28;20133;-79
2022/03/09 07:58:01;;;;;;;13.48;7.95;;;2.30;1.00;;;;;;5017467;28;20077;-79
2022/03/09 08:00:29;;;;;;;12.23;7.93;;;2.40;1.00;;;;;;5016628;28;20060;-79
2022/03/09 08:02:55;;;;;;;10.88;7.20;;;2.60;1.00;;;;;;5032752;28;20150;-79
2022/03/09 08:05:21;;;;;;;9.20;6.88;;;2.70;1.00;;;;;;5018050;28;20125;-79
2022/03/09 08:07:47;;;;;;;13.15;7.47;;;2.80;1.00;;;;;;5018409;28;20119;-79
2022/03/09 08:10:15;;;;;;;10.55;7.28;;;3.00;99.90;;;;;;5033246;28;20072;-79
2022/03/09 08:12:40;;;;;;;10.30;6.90;;;3.00;99.90;;;;;;5033335;28;20115;-79
2022/03/09 08:15:10;;;;;;;12.30;7.22;;;3.20;99.90;;;;;;5017596;28;20473;-78
2022/03/09 08:17:36;;;;;;;10.90;7.18;;;3.30;99.90;;;;;;5035120;28;20033;-79
2022/03/09 08:20:02;;;;;;;11.52;7.65;;;3.50;99.90;;;;;;5016475;28;20516;-78
2022/03/09 08:22:28;;;;;;;12.55;7.10;;;3.60;99.90;;;;;;5036724;28;20032;-79
2022/03/09 08:24:54;;;;;;;10.50;7.22;;;3.70;99.90;;;;;;5016950;28;20060;-78
2022/03/09 08:27:19;;;;;;;10.52;7.22;;;3.80;99.90;;;;;;5018759;28;20106;-78
2022/03/09 08:29:45;;;;;;;10.50;7.15;;;4.00;99.90;;;;;;5025492;28;20151;-78
2022/03/09 08:32:14;;;;;;;10.55;6.90;;;4.10;99.90;;;;;;5020628;28;20032;-78
2022/03/09 08:34:39;;;;;;;9.35;6.57;;;4.30;83.80;;;;;;5034278;28;20064;-78
2022/03/09 08:37:05;;;;;;;12.48;6.88;;;4.40;12.90;;;;;;5033730;28;20466;-79
2022/03/09 08:39:31;;;;;;;10.52;6.80;;;4.60;10.30;;;;;;5015322;28;20368;-79
2022/03/09 08:41:56;;;;;;;9.50;6.22;;;4.60;1.00;;;;;;5017090;28;20045;-78
2022/03/09 08:44:22;;;;;;;10.20;7.07;;;4.80;1.00;;;;;;5018187;28;20455;-78
2022/03/09 08:46:47;;;;;;;11.52;7.13;;;4.90;1.00;;;;;;5033261;28;20484;-78
2022/03/09 08:49:14;;;;;;;9.68;7.18;;;5.00;1.00;;;;;;5033048;28;20388;-78
2022/03/09 08:51:40;;;;;;;9.48;6.90;;;5.10;1.00;;;;;;5017450;28;20049;-78
2022/03/09 08:54:05;;;;;;;9.30;6.72;;;5.20;1.00;;;;;;5018159;28;20048;-78
2022/03/09 08:56:32;;;;;;;10.35;6.32;;;5.30;1.00;;;;;;5027806;28;20032;-78
2022/03/09 08:58:59;;;;;;;9.10;7.15;;;5.40;1.00;;;;;;5017353;28;20041;-78
2022/03/09 09:01:25;;;;;;;13.13;6.65;;;5.60;1.00;;;;;;5018050;28;20108;-78
2022/03/09 09:03:51;;;;;;;11.95;6.97;;;5.60;1.00;;;;;;5013193;28;20061;-78
2022/03/09 09:06:16;;;;;;;10.55;6.70;;;5.80;1.00;;;;;;5019261;28;20134;-78
2022/03/09 09:08:45;;;;;;;13.13;7.70;;;5.90;1.00;;;;;;5016575;28;20052;-78
2022/03/09 09:11:10;;;;;;;9.40;6.80;;;6.00;1.00;;;;;;5018889;28;20103;-78
2022/03/09 09:13:36;;;;;;;9.63;6.78;;;6.10;1.00;;;;;;5016340;28;20578;-78
2022/03/09 09:16:02;;;;;;;13.93;7.30;;;6.20;99.90;;;;;;5032936;28;20479;-78
2022/03/09 09:18:28;;;;;;;10.23;6.93;;;6.40;1.00;;;;;;5032224;28;20033;-79
2022/03/09 09:20:56;;;;;;;11.15;7.03;;;6.40;99.90;;;;;;5017915;28;20037;-78
2022/03/09 09:23:23;;;;;;;11.20;6.70;;;6.70;99.90;;;;;;5018065;28;20041;-79
2022/03/09 09:25:48;;;;;;;10.40;7.07;;;6.70;99.90;;;;;;5015613;28;20045;-78
2022/03/09 09:28:16;;;;;;;9.52;7.07;;;6.80;99.90;;;;;;5017073;28;20381;-78
2022/03/09 09:30:43;;;;;;;11.40;7.38;;;7.00;99.90;;;;;;5016715;28;20033;-78
2022/03/09 09:33:09;;;;;;;11.63;7.63;;;7.10;99.90;;;;;;5032379;28;20150;-79
2022/03/09 09:35:35;;;;;;;9.70;7.10;;;7.30;99.90;;;;;;5033269;28;20467;-79
2022/03/09 09:38:06;;;;;;;11.95;6.60;;;7.40;99.90;;;;;;5032608;28;20068;-78
2022/03/09 09:40:43;;;;;;;9.25;7.07;;;7.50;99.90;;;;;;5015473;28;20029;-79
2022/03/09 09:43:13;;;;;;;11.07;7.03;;;7.70;99.90;;;;;;5011580;28;20085;-79
2022/03/09 09:45:42;;;;;;;9.88;6.72;;;7.70;99.90;;;;;;5034460;28;20094;-79
2022/03/09 09:48:10;;;;;;;10.40;6.78;;;7.70;99.90;;;;;;5015205;28;20098;-78
2022/03/09 09:50:38;;;;;;;12.40;7.03;;;7.80;99.90;;;;;;5017400;28;20105;-79
2022/03/09 09:53:06;;;;;;;12.13;7.20;;;7.90;99.90;;;;;;5033181;28;20674;-79
2022/03/09 09:55:33;;;;;;;9.93;7.03;;;8.00;99.90;;;;;;5036518;28;20045;-78
2022/03/09 09:58:02;;;;;;;11.20;6.55;;;8.10;99.90;;;;;;5022135;28;20025;-79
2022/03/09 10:00:28;;;;;;;16.40;6.63;;;8.20;99.90;;;;;;5017927;28;20098;-79
2022/03/09 10:02:59;;;;;;;10.27;7.20;;;8.30;99.90;;;;;;5036641;28;20032;-79
2022/03/09 10:05:25;;;;;;;10.98;7.43;;;8.60;99.90;;;;;;5055398;28;20102;-79
2022/03/09 10:08:03;;;;;;;10.82;7.20;;;8.60;99.90;;;;;;5022466;28;20075;-78
2022/03/09 10:10:30;;;;;;;10.25;7.20;;;8.60;99.90;;;;;;5018707;28;20382;-79
2022/03/09 10:13:28;;;;;;;9.68;7.32;;;8.70;99.90;;;;;;5037408;28;20487;-79
2022/03/09 10:16:06;;;;;;;10.48;7.28;;;8.90;99.90;;;;;;5018666;28;20107;-79
2022/03/09 10:18:32;;;;;;;10.70;6.90;;;9.00;99.90;;;;;;5056383;28;20032;-79
2022/03/09 10:21:19;;;;;;;9.88;7.50;;;9.10;99.90;;;;;;5036162;28;20276;-79
2022/03/09 10:24:02;;;;;;;13.15;7.88;;;9.30;99.90;;;;;;5035735;28;20029;-79
2022/03/09 10:26:38;;;;;;;12.82;7.70;;;9.50;99.90;;;;;;5017306;28;20025;-79
2022/03/09 10:29:05;;;;;;;10.73;7.18;;;9.60;99.90;;;;;;5017503;28;20044;-79
2022/03/09 10:31:36;;;;;;;10.85;7.43;;;9.70;99.90;;;;;;5019398;28;20033;-79
2022/03/09 10:34:05;;;;;;;10.32;7.07;;;9.70;99.90;;;;;;5018989;28;20083;-79
2022/03/09 10:36:31;;;;;;;9.10;6.75;;;9.70;99.90;;;;;;5021245;28;20037;-79
2022/03/09 10:39:16;;;;;;;10.80;7.13;;;9.70;99.90;;;;;;5019214;28;20045;-79
2022/03/09 10:41:43;;;;;;;10.88;7.07;;;9.90;99.90;;;;;;5034304;28;20037;-79
2022/03/09 10:44:10;;;;;;;12.02;7.25;;;10.10;99.90;;;;;;5017392;28;20583;-79
2022/03/09 10:46:42;;;;;;;12.10;7.82;;;10.20;99.90;;;;;;5020165;28;20234;-79
2022/03/09 10:49:12;;;;;;;9.75;7.20;;;10.30;99.90;;;;;;5035475;28;20342;-79
2022/03/09 10:51:42;;;;;;;10.63;7.85;;;10.40;99.90;;;;;;5019124;28;20049;-79
2022/03/09 10:54:09;;;;;;;10.70;7.70;;;10.40;99.90;;;;;;5038322;28;20128;-79
2022/03/09 10:56:37;;;;;;;9.35;7.20;;;10.50;99.90;;;;;;5023901;28;20152;-79
2022/03/09 10:59:21;;;;;;;11.55;7.70;;;10.60;99.90;;;;;;5018016;28;20122;-79
2022/03/09 11:02:07;;;;;;;10.38;7.70;;;10.60;99.90;;;;;;5037723;28;20033;-79
2022/03/09 11:04:37;;;;;;;10.80;7.45;;;10.80;99.90;;;;;;5020786;28;20043;-80
2022/03/09 11:07:03;;;;;;;11.75;7.45;;;10.70;99.90;;;;;;5019897;28;20033;-79
2022/03/09 11:09:36;;;;;;;11.30;7.32;;;10.90;99.90;;;;;;5030941;28;20256;-80
2022/03/09 11:12:03;;;;;;;10.63;7.35;;;11.00;99.90;;;;;;5019979;28;20049;-79
2022/03/09 11:14:29;;;;;;;9.38;7.53;;;11.00;99.90;;;;;;5019900;28;20072;-80
2022/03/09 11:17:00;;;;;;;11.18;7.38;;;11.00;99.90;;;;;;5020228;28;20122;-79
2022/03/09 11:19:26;;;;;;;10.88;7.65;;;11.20;99.90;;;;;;5017860;28;20515;-79
2022/03/09 11:21:52;;;;;;;9.90;7.13;;;11.30;99.90;;;;;;5036389;28;20534;-79
2022/03/09 11:24:19;;;;;;;8.77;7.07;;;11.30;99.90;;;;;;5019760;28;20041;-79
2022/03/09 11:26:53;;;;;;;18.17;8.07;;;11.50;99.90;;;;;;5019565;28;20057;-79
2022/03/09 11:29:33;;;;;;;12.02;7.65;;;11.70;99.90;;;;;;5035561;28;20044;-79
2022/03/09 11:31:59;;;;;;;9.48;7.30;;;11.80;99.90;;;;;;5035243;28;20036;-79
2022/03/09 11:34:43;;;;;;;11.13;7.50;;;11.80;99.90;;;;;;5018989;28;20417;-79
2022/03/09 11:37:11;;;;;;;10.40;7.50;;;11.80;99.90;;;;;;5033786;28;20054;-79
2022/03/09 11:40:09;;;;;;;9.00;7.60;;;12.00;99.90;;;;;;5019771;28;20590;-80
2022/03/09 11:42:36;;;;;;;14.68;8.43;;;11.90;99.90;;;;;;5016439;28;20029;-79
2022/03/09 11:45:14;;;;;;;10.60;7.97;;;12.20;99.90;;;;;;5034066;28;20701;-79
2022/03/09 11:48:05;;;;;;;10.27;8.02;;;12.20;99.90;;;;;;5019610;28;20507;-79
2022/03/09 11:50:56;;;;;;;10.63;7.40;;;12.20;99.90;;;;;;5033204;28;20041;-79
2022/03/09 11:53:41;;;;;;;9.98;7.13;;;12.20;99.90;;;;;;5015910;28;20041;-79
2022/03/09 11:56:36;;;;;;;12.73;8.00;;;12.60;99.90;;;;;;5016168;28;20060;-79
2022/03/09 11:59:21;;;;;;;11.35;7.30;;;12.60;99.90;;;;;;5032813;28;20065;-80
2022/03/09 12:02:14;;;;;;;11.45;7.60;;;12.70;99.90;;;;;;5013598;28;20106;-80
2022/03/09 12:04:40;;;;;;;10.73;7.28;;;12.70;99.90;;;;;;5017609;28;20060;-80
2022/03/09 12:07:09;;;;;;;10.23;7.93;;;12.90;99.90;;;;;;5004387;28;20060;-80
2022/03/09 12:09:55;;;;;;;12.18;7.60;;;13.10;99.90;;;;;;5017712;28;20048;-80
2022/03/09 12:12:21;;;;;;;10.63;7.90;;;13.00;99.90;;;;;;5034265;28;20041;-79
2022/03/09 12:15:05;;;;;;;10.57;7.80;;;13.10;99.90;;;;;;5015509;28;20071;-80
2022/03/09 12:17:34;;;;;;;9.43;7.28;;;13.10;99.90;;;;;;5031649;28;20033;-80
2022/03/09 12:20:20;;;;;;;9.35;7.97;;;13.20;99.90;;;;;;5019209;28;20409;-80
2022/03/09 12:23:07;;;;;;;9.45;7.53;;;13.20;99.90;;;;;;5031929;28;20037;-80
2022/03/09 12:25:50;;;;;;;9.70;7.68;;;13.20;99.90;;;;;;5012403;28;20064;-80
2022/03/09 12:28:28;;;;;;;9.93;7.25;;;13.40;99.90;;;;;;5014725;28;20041;-80
2022/03/09 12:31:03;;;;;;;8.50;7.60;;;13.50;99.90;;;;;;5015851;28;20064;-80
2022/03/09 12:33:30;;;;;;;;;;;13.70;99.90;;;;;;5034938;28;20053;-79
2022/03/09 12:36:07;;;;;;;9.75;7.72;;;13.60;99.90;;;;;;5035089;28;20348;-80
2022/03/09 12:38:45;;;;;;;9.98;7.88;;;13.80;99.90;;;;;;5030932;28;20047;-80
2022/03/09 12:41:30;;;;;;;9.75;7.78;;;14.00;99.90;;;;;;5048170;28;20052;-79
2022/03/09 12:43:57;;;;;;;13.90;8.25;;;14.10;99.90;;;;;;5010372;28;20529;-80
2022/03/09 12:46:25;;;;;;;9.88;7.82;;;13.80;99.90;;;;;;5000049;28;20136;-80
2022/03/09 12:49:00;;;;;;;11.13;7.85;;;14.30;99.90;;;;;;5014636;28;20124;-80
2022/03/09 12:51:26;;;;;;;;;;;14.20;99.90;;;;;;5016984;28;20041;-80
2022/03/09 12:53:51;;;;;;;8.52;6.78;;;14.50;99.90;;;;;;5049004;28;19931;-80
2022/03/09 12:56:21;;;;;;;8.48;7.28;;;14.40;99.90;;;;;;5014081;28;20561;-80
2022/03/09 12:58:50;;;;;;;10.25;7.32;;;14.50;99.90;;;;;;5034048;28;20043;-80